Time;durP1;ratioP1;P1;durP2;ratioP2;P2;SDS_P1;SDS_P2;PMS_P1;PMS_P2;Temp;Humidity;BMP_temperature;BMP_pressure;BME280_temperature;BME280_humidity;BME280_pressure;Samples;Min_cycle;Max_cycle;Signal;HPM_P1;HPM_P2
2023/07/25 00:00:34;;;;;;;2.40;1.90;;;;;;;;;;5071425;28;20200;-55
2023/07/25 00:03:01;;;;;;;6.80;2.00;;;;;;;;;;5067769;28;20202;-55
2023/07/25 00:05:27;;;;;;;4.27;2.10;;;;;;;;;;5071484;28;20566;-55
2023/07/25 00:07:53;;;;;;;4.07;2.20;;;;;;;;;;5071313;28;20230;-55
2023/07/25 00:10:19;;;;;;;3.07;2.10;;;;;;;;;;5071462;28;20562;-56
2023/07/25 00:12:47;;;;;;;3.33;1.87;;;;;;;;;;5071444;28;20624;-55
2023/07/25 00:15:13;;;;;;;4.43;1.97;;;;;;;;;;5071545;28;20204;-55
2023/07/25 00:17:39;;;;;;;2.73;1.73;;;;;;;;;;5071466;28;20231;-56
2023/07/25 00:20:05;;;;;;;2.97;2.13;;;;;;;;;;5075187;28;20657;-55
2023/07/25 00:22:31;;;;;;;5.10;2.23;;;;;;;;;;5074963;28;20705;-56
2023/07/25 00:24:58;;;;;;;3.07;2.13;;;;;;;;;;5075029;28;20295;-57
2023/07/25 00:27:23;;;;;;;2.70;2.23;;;;;;;;;;5075147;28;20716;-54
2023/07/25 00:29:53;;;;;;;7.53;2.27;;;;;;;;;;5074909;28;20199;-54
2023/07/25 00:32:19;;;;;;;3.87;1.90;;;;;;;;;;5074777;28;20273;-54
2023/07/25 00:34:45;;;;;;;3.70;2.00;;;;;;;;;;5074618;28;20658;-55
2023/07/25 00:37:11;;;;;;;3.53;2.50;;;;;;;;;;5074805;28;20203;-55
2023/07/25 00:39:37;;;;;;;3.93;1.87;;;;;;;;;;5074628;28;20729;-54
2023/07/25 00:42:03;;;;;;;3.23;2.17;;;;;;;;;;5074604;28;20198;-55
2023/07/25 00:44:29;;;;;;;2.10;1.90;;;;;;;;;;5074362;28;20231;-54
2023/07/25 00:46:56;;;;;;;5.80;2.37;;;;;;;;;;5074779;28;20229;-55
2023/07/25 00:49:22;;;;;;;4.10;2.30;;;;;;;;;;5074493;28;20224;-55
2023/07/25 00:51:48;;;;;;;5.10;2.13;;;;;;;;;;5074450;28;20252;-54
2023/07/25 00:54:14;;;;;;;5.87;2.40;;;;;;;;;;5074298;28;20200;-54
2023/07/25 00:56:40;;;;;;;3.47;2.37;;;;;;;;;;5074379;28;20195;-55
2023/07/25 00:59:06;;;;;;;5.23;2.43;;;;;;;;;;5074173;28;20200;-54
2023/07/25 01:01:32;;;;;;;5.30;2.40;;;;;;;;;;5074274;28;20253;-54
2023/07/25 01:04:00;;;;;;;4.87;2.67;;;;;;;;;;5074070;28;20217;-54
2023/07/25 01:06:27;;;;;;;3.40;2.10;;;;;;;;;;5074201;28;20284;-55
2023/07/25 01:08:54;;;;;;;4.27;2.23;;;;;;;;;;5073957;28;20227;-55
2023/07/25 01:11:20;;;;;;;7.90;2.60;;;;;;;;;;5074023;28;20598;-54
2023/07/25 01:13:46;;;;;;;4.37;2.30;;;;;;;;;;5073961;28;20203;-54
2023/07/25 01:16:13;;;;;;;3.60;2.47;;;;;;;;;;5074102;28;20196;-55
2023/07/25 01:18:40;;;;;;;4.37;2.60;;;;;;;;;;5073949;28;20203;-55
2023/07/25 01:21:07;;;;;;;3.60;2.30;;;;;;;;;;5074063;28;20241;-54
2023/07/25 01:23:34;;;;;;;3.97;2.13;;;;;;;;;;5073777;28;20200;-54
2023/07/25 01:26:01;;;;;;;3.33;2.20;;;;;;;;;;5073725;28;20211;-54
2023/07/25 01:28:27;;;;;;;4.97;2.53;;;;;;;;;;5073636;28;20595;-54
2023/07/25 01:30:53;;;;;;;4.87;2.30;;;;;;;;;;5073644;28;20187;-53
2023/07/25 01:33:19;;;;;;;3.57;2.30;;;;;;;;;;5073808;28;20207;-56
2023/07/25 01:35:45;;;;;;;3.10;2.27;;;;;;;;;;5073496;28;20228;-52
2023/07/25 01:38:11;;;;;;;4.93;2.57;;;;;;;;;;5073721;28;20192;-55
2023/07/25 01:40:41;;;;;;;4.03;2.30;;;;;;;;;;5073597;28;20253;-53
2023/07/25 01:43:09;;;;;;;6.60;2.40;;;;;;;;;;5073385;28;20242;-64
2023/07/25 01:45:35;;;;;;;7.17;2.60;;;;;;;;;;5073360;28;20286;-54
2023/07/25 01:48:01;;;;;;;3.17;1.90;;;;;;;;;;5073294;28;20227;-53
2023/07/25 01:50:27;;;;;;;5.13;2.73;;;;;;;;;;5073394;28;20253;-53
2023/07/25 01:52:53;;;;;;;3.53;2.30;;;;;;;;;;5073252;28;20286;-53
2023/07/25 01:55:19;;;;;;;4.33;2.37;;;;;;;;;;5073224;28;20223;-54
2023/07/25 01:57:45;;;;;;;6.07;2.60;;;;;;;;;;5072964;28;20668;-54
2023/07/25 02:00:13;;;;;;;3.43;2.40;;;;;;;;;;5071828;28;20290;-53
2023/07/25 02:02:39;;;;;;;6.70;2.60;;;;;;;;;;5073181;28;20287;-53
2023/07/25 02:05:06;;;;;;;4.87;2.63;;;;;;;;;;5073094;28;20223;-54
2023/07/25 02:07:32;;;;;;;6.03;2.70;;;;;;;;;;5072764;28;20195;-53
2023/07/25 02:09:58;;;;;;;9.50;2.80;;;;;;;;;;5072793;28;20249;-53
2023/07/25 02:12:25;;;;;;;7.20;2.83;;;;;;;;;;5073111;28;20204;-53
2023/07/25 02:14:51;;;;;;;4.93;2.80;;;;;;;;;;5072858;28;20665;-53
2023/07/25 02:17:19;;;;;;;4.23;2.67;;;;;;;;;;5072900;28;20238;-53
2023/07/25 02:19:45;;;;;;;3.47;2.60;;;;;;;;;;5072676;28;20578;-53
2023/07/25 02:22:11;;;;;;;5.37;2.57;;;;;;;;;;5072730;28;20191;-53
2023/07/25 02:24:37;;;;;;;8.03;3.10;;;;;;;;;;5072710;28;20201;-54
2023/07/25 02:27:03;;;;;;;7.07;3.43;;;;;;;;;;5072484;28;20278;-54
2023/07/25 02:29:30;;;;;;;6.47;2.90;;;;;;;;;;5072440;28;20228;-53
2023/07/25 02:31:56;;;;;;;8.97;3.00;;;;;;;;;;5072464;28;20243;-54
2023/07/25 02:34:23;;;;;;;5.27;2.80;;;;;;;;;;5072503;28;20222;-53
2023/07/25 02:36:49;;;;;;;6.30;2.80;;;;;;;;;;5072250;28;20230;-53
2023/07/25 02:39:15;;;;;;;6.03;2.87;;;;;;;;;;5072359;28;20206;-53
2023/07/25 02:41:41;;;;;;;4.97;2.53;;;;;;;;;;5071792;28;20203;-54
2023/07/25 02:44:07;;;;;;;5.07;2.50;;;;;;;;;;5072233;28;20239;-54
2023/07/25 02:46:34;;;;;;;4.73;2.87;;;;;;;;;;5072205;28;20202;-54
2023/07/25 02:49:00;;;;;;;6.57;2.73;;;;;;;;;;5072204;28;20282;-54
2023/07/25 02:51:27;;;;;;;5.50;2.93;;;;;;;;;;5072237;28;20229;-54
2023/07/25 02:53:53;;;;;;;5.70;2.67;;;;;;;;;;5072104;28;20203;-54
2023/07/25 02:56:21;;;;;;;3.80;2.60;;;;;;;;;;5072165;28;20677;-53
2023/07/25 02:58:47;;;;;;;4.13;2.80;;;;;;;;;;5072055;28;20614;-53
2023/07/25 03:01:13;;;;;;;5.43;2.60;;;;;;;;;;5072008;28;20200;-54
2023/07/25 03:03:39;;;;;;;6.77;3.10;;;;;;;;;;5072098;28;20229;-53
2023/07/25 03:06:05;;;;;;;5.90;2.63;;;;;;;;;;5071955;28;20207;-53
2023/07/25 03:08:33;;;;;;;6.03;2.73;;;;;;;;;;5071785;28;20234;-53
2023/07/25 03:10:59;;;;;;;7.03;3.07;;;;;;;;;;5071759;28;20203;-53
2023/07/25 03:13:25;;;;;;;5.30;2.80;;;;;;;;;;5071995;28;20290;-53
2023/07/25 03:15:51;;;;;;;4.93;3.07;;;;;;;;;;5071920;28;20196;-52
2023/07/25 03:18:17;;;;;;;4.73;2.80;;;;;;;;;;5071821;28;20223;-54
2023/07/25 03:20:43;;;;;;;6.40;3.07;;;;;;;;;;5071746;28;20203;-54
2023/07/25 03:23:09;;;;;;;4.73;3.00;;;;;;;;;;5071852;28;20203;-52
2023/07/25 03:25:36;;;;;;;5.17;3.17;;;;;;;;;;5071639;28;20202;-52
2023/07/25 03:28:02;;;;;;;5.97;2.97;;;;;;;;;;5071432;28;20724;-52
2023/07/25 03:30:28;;;;;;;4.40;2.87;;;;;;;;;;5071599;28;20290;-53
2023/07/25 03:32:54;;;;;;;7.30;3.30;;;;;;;;;;5071584;28;20286;-52
2023/07/25 03:35:20;;;;;;;5.23;3.37;;;;;;;;;;5071328;28;20278;-53
2023/07/25 03:37:46;;;;;;;5.50;3.63;;;;;;;;;;5070556;28;20257;-52
2023/07/25 03:40:12;;;;;;;4.13;3.53;;;;;;;;;;5071685;28;20196;-52
2023/07/25 03:42:39;;;;;;;5.97;3.53;;;;;;;;;;5071503;28;20198;-53
2023/07/25 03:45:06;;;;;;;4.27;3.40;;;;;;;;;;5071436;28;20204;-53
2023/07/25 03:47:32;;;;;;;4.67;3.73;;;;;;;;;;5071245;28;20207;-53
2023/07/25 03:49:58;;;;;;;6.13;3.60;;;;;;;;;;5071302;28;20615;-53
2023/07/25 03:52:24;;;;;;;8.67;3.93;;;;;;;;;;5071602;28;20207;-53
2023/07/25 03:54:50;;;;;;;8.17;3.80;;;;;;;;;;5074972;28;20192;-52
2023/07/25 03:57:16;;;;;;;5.13;2.97;;;;;;;;;;5075482;28;20199;-53
2023/07/25 03:59:43;;;;;;;4.33;3.00;;;;;;;;;;5075365;28;20283;-53
2023/07/25 04:02:09;;;;;;;5.00;2.80;;;;;;;;;;5075449;28;20199;-53
2023/07/25 04:04:35;;;;;;;8.60;4.47;;;;;;;;;;5075197;28;20611;-51
2023/07/25 04:07:01;;;;;;;3.70;3.40;;;;;;;;;;5075050;28;20283;-52
2023/07/25 04:09:27;;;;;;;7.37;4.07;;;;;;;;;;5075191;28;20238;-52
2023/07/25 04:11:53;;;;;;;4.57;3.30;;;;;;;;;;5075241;28;20196;-53
2023/07/25 04:14:19;;;;;;;6.07;3.33;;;;;;;;;;5075032;28;20203;-52
2023/07/25 04:16:47;;;;;;;6.13;3.53;;;;;;;;;;5074861;28;20242;-52
2023/07/25 04:19:13;;;;;;;9.50;4.20;;;;;;;;;;5075169;28;20279;-53
2023/07/25 04:21:39;;;;;;;5.87;4.10;;;;;;;;;;5075017;28;20278;-53
2023/07/25 04:24:05;;;;;;;8.90;3.80;;;;;;;;;;5074860;28;20191;-52
2023/07/25 04:26:31;;;;;;;5.97;3.60;;;;;;;;;;5074867;28;20224;-51
2023/07/25 04:28:57;;;;;;;8.13;3.80;;;;;;;;;;5074841;28;20234;-52
2023/07/25 04:31:23;;;;;;;6.97;4.03;;;;;;;;;;5074942;28;20271;-51
2023/07/25 04:33:51;;;;;;;11.50;3.97;;;;;;;;;;5074735;28;20653;-51
2023/07/25 04:36:17;;;;;;;7.13;4.30;;;;;;;;;;5074730;28;20530;-51
2023/07/25 04:38:43;;;;;;;8.90;4.40;;;;;;;;;;5074656;28;20286;-52
2023/07/25 04:41:09;;;;;;;7.67;4.40;;;;;;;;;;5074848;28;20267;-52
2023/07/25 04:43:35;;;;;;;6.73;4.43;;;;;;;;;;5074473;28;20231;-52
2023/07/25 04:46:01;;;;;;;7.13;4.20;;;;;;;;;;5074421;28;20685;-52
2023/07/25 04:48:27;;;;;;;6.03;4.53;;;;;;;;;;5074387;28;20706;-52
2023/07/25 04:50:54;;;;;;;7.60;5.83;;;;;;;;;;5074712;28;20645;-52
2023/07/25 04:53:20;;;;;;;7.67;5.37;;;;;;;;;;5073163;28;20230;-52
2023/07/25 04:55:46;;;;;;;6.87;3.87;;;;;;;;;;5074382;28;20246;-51
2023/07/25 04:58:12;;;;;;;9.60;4.87;;;;;;;;;;5074393;28;20214;-52
2023/07/25 05:00:38;;;;;;;11.07;4.00;;;;;;;;;;5074246;28;20666;-53
2023/07/25 05:03:04;;;;;;;4.87;3.57;;;;;;;;;;5074162;28;20337;-52
2023/07/25 05:05:30;;;;;;;7.47;4.07;;;;;;;;;;5073662;28;20706;-52
2023/07/25 05:07:58;;;;;;;7.83;4.30;;;;;;;;;;5073971;28;20215;-52
2023/07/25 05:10:24;;;;;;;8.47;4.60;;;;;;;;;;5074238;28;20233;-53
2023/07/25 05:12:50;;;;;;;7.07;4.33;;;;;;;;;;5073880;28;20192;-55
2023/07/25 05:15:16;;;;;;;4.67;4.07;;;;;;;;;;5073992;28;20207;-55
2023/07/25 05:17:42;;;;;;;8.80;4.20;;;;;;;;;;5073929;28;20192;-54
2023/07/25 05:20:08;;;;;;;8.60;4.00;;;;;;;;;;5073957;28;20198;-52
2023/07/25 05:22:34;;;;;;;6.77;4.20;;;;;;;;;;5073816;28;20226;-52
2023/07/25 05:25:02;;;;;;;8.10;3.87;;;;;;;;;;5073637;28;20199;-51
2023/07/25 05:27:28;;;;;;;7.17;4.30;;;;;;;;;;5074197;28;20244;-52
2023/07/25 05:29:54;;;;;;;5.17;3.30;;;;;;;;;;5073702;28;20223;-53
2023/07/25 05:32:20;;;;;;;6.13;3.60;;;;;;;;;;5073735;28;20199;-53
2023/07/25 05:34:46;;;;;;;16.47;4.30;;;;;;;;;;5073425;28;20203;-53
2023/07/25 05:37:12;;;;;;;9.03;4.07;;;;;;;;;;5073598;28;20222;-54
2023/07/25 05:39:38;;;;;;;5.50;3.47;;;;;;;;;;5073718;28;20242;-53
2023/07/25 05:42:06;;;;;;;6.97;4.07;;;;;;;;;;5073452;28;20195;-54
2023/07/25 05:44:32;;;;;;;4.50;3.33;;;;;;;;;;5073334;28;20271;-53
2023/07/25 05:47:00;;;;;;;7.10;3.70;;;;;;;;;;5073150;28;20239;-54
2023/07/25 05:49:26;;;;;;;6.67;3.30;;;;;;;;;;5073220;28;20255;-54
2023/07/25 05:51:53;;;;;;;4.60;3.27;;;;;;;;;;5073215;28;20230;-54
2023/07/25 05:54:19;;;;;;;7.40;3.90;;;;;;;;;;5073287;28;20639;-54
2023/07/25 05:56:45;;;;;;;7.27;3.60;;;;;;;;;;5073100;28;20184;-54
2023/07/25 05:59:13;;;;;;;5.20;3.00;;;;;;;;;;5072918;28;20536;-55
2023/07/25 06:01:39;;;;;;;8.33;3.50;;;;;;;;;;5073118;28;20681;-54
2023/07/25 06:04:05;;;;;;;5.43;3.00;;;;;;;;;;5073079;28;20198;-54
2023/07/25 06:06:32;;;;;;;6.53;3.00;;;;;;;;;;5072859;28;20219;-55
2023/07/25 06:08:58;;;;;;;9.07;3.00;;;;;;;;;;5072809;28;20224;-55
2023/07/25 06:11:24;;;;;;;5.23;2.50;;;;;;;;;;5073265;28;20286;-54
2023/07/25 06:13:52;;;;;;;6.00;2.70;;;;;;;;;;5072820;28;20199;-53
2023/07/25 06:16:19;;;;;;;4.17;2.40;;;;;;;;;;5072042;28;20200;-55
2023/07/25 06:18:45;;;;;;;6.77;2.60;;;;;;;;;;5072729;28;20221;-54
2023/07/25 06:21:12;;;;;;;9.07;2.83;;;;;;;;;;5072726;28;20199;-55
2023/07/25 06:23:38;;;;;;;6.63;2.70;;;;;;;;;;5072735;28;20201;-55
2023/07/25 06:26:04;;;;;;;6.90;2.40;;;;;;;;;;5072579;28;20257;-55
2023/07/25 06:28:30;;;;;;;6.70;2.63;;;;;;;;;;5072440;28;20229;-55
2023/07/25 06:30:56;;;;;;;5.07;2.23;;;;;;;;;;5072591;28;20202;-54
2023/07/25 06:33:23;;;;;;;3.93;2.17;;;;;;;;;;5072692;28;20194;-54
2023/07/25 06:35:49;;;;;;;9.10;2.77;;;;;;;;;;5072344;28;20307;-54
2023/07/25 06:38:15;;;;;;;3.60;1.90;;;;;;;;;;5072195;28;20725;-54
2023/07/25 06:40:41;;;;;;;5.37;2.60;;;;;;;;;;5072350;28;20200;-54
2023/07/25 06:43:07;;;;;;;4.10;2.07;;;;;;;;;;5072446;28;20239;-54
2023/07/25 06:45:33;;;;;;;7.50;2.50;;;;;;;;;;5072158;28;20196;-54
2023/07/25 06:47:59;;;;;;;4.30;2.10;;;;;;;;;;5071885;28;20247;-54
2023/07/25 06:50:26;;;;;;;5.57;2.53;;;;;;;;;;5072385;28;20197;-54
2023/07/25 06:52:52;;;;;;;5.20;2.13;;;;;;;;;;5072090;28;20214;-55
2023/07/25 06:55:19;;;;;;;5.40;2.07;;;;;;;;;;5072104;28;20746;-54
2023/07/25 06:57:45;;;;;;;5.97;2.43;;;;;;;;;;5072062;28;20204;-54
2023/07/25 07:00:12;;;;;;;4.20;2.13;;;;;;;;;;5072141;28;20191;-55
2023/07/25 07:02:38;;;;;;;4.80;2.23;;;;;;;;;;5072089;28;20211;-54
2023/07/25 07:05:04;;;;;;;5.03;2.00;;;;;;;;;;5071970;28;20219;-54
2023/07/25 07:07:32;;;;;;;6.30;1.90;;;;;;;;;;5071761;28;20202;-54
2023/07/25 07:09:58;;;;;;;4.83;2.20;;;;;;;;;;5071618;28;20230;-54
2023/07/25 07:12:24;;;;;;;7.93;2.10;;;;;;;;;;5072063;28;20280;-54
2023/07/25 07:14:50;;;;;;;3.87;2.27;;;;;;;;;;5072040;28;20218;-52
2023/07/25 07:17:16;;;;;;;3.73;1.63;;;;;;;;;;5071723;28;20208;-54
2023/07/25 07:19:42;;;;;;;9.17;2.00;;;;;;;;;;5071399;28;20213;-53
2023/07/25 07:22:08;;;;;;;4.97;1.80;;;;;;;;;;5071683;28;20699;-53
2023/07/25 07:24:36;;;;;;;6.10;1.83;;;;;;;;;;5071714;28;20222;-53
2023/07/25 07:27:02;;;;;;;3.50;1.83;;;;;;;;;;5071309;28;20610;-54
2023/07/25 07:29:28;;;;;;;4.20;1.97;;;;;;;;;;5071676;28;20228;-53
2023/07/25 07:31:54;;;;;;;3.60;1.90;;;;;;;;;;5071667;28;20198;-53
2023/07/25 07:34:20;;;;;;;5.77;1.70;;;;;;;;;;5071670;28;20248;-53
2023/07/25 07:36:46;;;;;;;4.40;1.97;;;;;;;;;;5071443;28;20201;-53
2023/07/25 07:39:12;;;;;;;4.63;1.83;;;;;;;;;;5071505;28;20672;-54
2023/07/25 07:41:39;;;;;;;5.07;2.00;;;;;;;;;;5071660;28;20215;-53
2023/07/25 07:44:05;;;;;;;5.70;2.00;;;;;;;;;;5071152;28;20224;-54
2023/07/25 07:46:32;;;;;;;3.23;1.80;;;;;;;;;;5071408;28;20235;-53
2023/07/25 07:48:58;;;;;;;5.70;1.97;;;;;;;;;;5071333;28;20227;-54
2023/07/25 07:51:25;;;;;;;5.20;1.70;;;;;;;;;;5071572;28;20195;-56
2023/07/25 07:53:51;;;;;;;5.23;2.10;;;;;;;;;;5071315;28;20716;-57
2023/07/25 07:56:17;;;;;;;3.40;1.50;;;;;;;;;;5071429;28;20199;-57
2023/07/25 07:58:45;;;;;;;3.97;1.70;;;;;;;;;;5071305;28;20188;-54
2023/07/25 08:01:15;;;;;;;4.13;1.63;;;;;;;;;;5071314;28;20195;-57
2023/07/25 08:03:41;;;;;;;4.33;2.17;;;;;;;;;;5071367;28;20203;-58
2023/07/25 08:06:07;;;;;;;4.37;1.73;;;;;;;;;;5071110;28;20222;-59
2023/07/25 08:08:33;;;;;;;3.83;1.77;;;;;;;;;;5071193;28;20268;-60
2023/07/25 08:10:59;;;;;;;3.70;1.50;;;;;;;;;;5071123;28;20199;-60
2023/07/25 08:13:25;;;;;;;3.00;1.60;;;;;;;;;;5071376;28;20206;-58
2023/07/25 08:15:52;;;;;;;5.07;1.67;;;;;;;;;;5061580;28;20192;-58
2023/07/25 08:18:18;;;;;;;3.30;1.63;;;;;;;;;;5070851;28;20290;-58
2023/07/25 08:20:45;;;;;;;2.70;1.30;;;;;;;;;;5070864;28;20206;-58
2023/07/25 08:23:11;;;;;;;5.67;1.70;;;;;;;;;;5070791;28;20200;-58
2023/07/25 08:25:38;;;;;;;2.30;1.40;;;;;;;;;;5071058;28;20238;-58
2023/07/25 08:28:04;;;;;;;3.33;1.50;;;;;;;;;;5071081;28;20191;-59
2023/07/25 08:30:30;;;;;;;3.17;1.40;;;;;;;;;;5068856;28;20203;-59
2023/07/25 08:32:57;;;;;;;3.00;1.27;;;;;;;;;;5069434;28;20199;-59
2023/07/25 08:35:23;;;;;;;4.43;1.70;;;;;;;;;;5071007;28;20286;-59
2023/07/25 08:37:49;;;;;;;2.97;1.60;;;;;;;;;;5070931;28;20200;-57
2023/07/25 08:40:15;;;;;;;5.47;1.77;;;;;;;;;;5073585;28;20298;-57
2023/07/25 08:42:42;;;;;;;3.23;1.50;;;;;;;;;;5074764;28;20226;-55
2023/07/25 08:45:09;;;;;;;2.40;1.60;;;;;;;;;;5074850;28;20852;-56
2023/07/25 08:47:39;;;;;;;2.17;1.53;;;;;;;;;;5074813;28;20235;-57
2023/07/25 08:50:10;;;;;;;4.33;1.70;;;;;;;;;;5074528;28;20682;-57
2023/07/25 08:52:36;;;;;;;2.70;1.50;;;;;;;;;;5074779;28;20294;-57
2023/07/25 08:55:02;;;;;;;3.17;1.60;;;;;;;;;;5074532;28;20256;-57
2023/07/25 08:57:28;;;;;;;2.50;1.20;;;;;;;;;;5074626;28;20561;-57
2023/07/25 08:59:55;;;;;;;2.60;1.70;;;;;;;;;;5074722;28;20192;-56
2023/07/25 09:02:21;;;;;;;2.33;1.60;;;;;;;;;;5074587;28;20245;-56
2023/07/25 09:04:48;;;;;;;2.60;1.40;;;;;;;;;;5074329;28;20215;-56
2023/07/25 09:07:15;;;;;;;3.77;1.50;;;;;;;;;;5074320;28;20282;-57
2023/07/25 09:09:41;;;;;;;1.83;1.57;;;;;;;;;;5074361;28;20330;-57
2023/07/25 09:12:08;;;;;;;2.83;1.43;;;;;;;;;;5074231;28;20199;-57
2023/07/25 09:14:38;;;;;;;2.00;1.30;;;;;;;;;;5074352;28;20197;-57
2023/07/25 09:17:04;;;;;;;3.43;1.70;;;;;;;;;;5074180;28;20223;-57
2023/07/25 09:19:31;;;;;;;2.90;1.60;;;;;;;;;;5074256;28;20196;-57
2023/07/25 09:21:57;;;;;;;3.90;1.40;;;;;;;;;;5074152;28;20568;-57
2023/07/25 09:24:35;;;;;;;4.30;1.57;;;;;;;;;;5074295;28;20204;-58
2023/07/25 09:27:01;;;;;;;3.60;1.70;;;;;;;;;;5073945;28;20203;-58
2023/07/25 09:29:28;;;;;;;3.47;1.80;;;;;;;;;;5074021;28;20721;-57
2023/07/25 09:31:54;;;;;;;3.43;1.70;;;;;;;;;;5072802;28;20196;-57
2023/07/25 09:34:23;;;;;;;2.73;1.50;;;;;;;;;;5073122;28;20234;-57
2023/07/25 09:36:50;;;;;;;4.53;1.73;;;;;;;;;;5072692;28;20200;-57
2023/07/25 09:39:16;;;;;;;4.40;1.73;;;;;;;;;;5072664;28;21017;-57
2023/07/25 09:41:45;;;;;;;3.37;1.50;;;;;;;;;;5072986;28;20271;-57
2023/07/25 09:44:11;;;;;;;3.27;1.57;;;;;;;;;;5072814;28;20239;-57
2023/07/25 09:46:37;;;;;;;4.50;1.70;;;;;;;;;;5072925;28;20203;-57
2023/07/25 09:49:03;;;;;;;4.80;2.10;;;;;;;;;;5072409;28;20702;-58
2023/07/25 09:51:29;;;;;;;3.10;1.80;;;;;;;;;;5071474;28;20206;-58
2023/07/25 09:53:56;;;;;;;4.57;1.90;;;;;;;;;;5072597;28;20226;-58
2023/07/25 09:56:23;;;;;;;5.03;1.70;;;;;;;;;;5072777;28;20316;-56
2023/07/25 09:58:51;;;;;;;3.53;1.87;;;;;;;;;;5072368;28;20191;-57
2023/07/25 10:01:17;;;;;;;3.27;1.70;;;;;;;;;;5072484;28;20286;-56
2023/07/25 10:03:43;;;;;;;4.53;2.00;;;;;;;;;;5072301;28;20195;-56
2023/07/25 10:06:10;;;;;;;4.37;2.10;;;;;;;;;;5072250;28;20227;-57
2023/07/25 10:08:37;;;;;;;3.90;1.73;;;;;;;;;;5072295;28;20224;-56
2023/07/25 10:11:03;;;;;;;4.33;1.73;;;;;;;;;;5072165;28;20234;-57
2023/07/25 10:13:29;;;;;;;6.77;1.97;;;;;;;;;;5072116;28;20204;-57
2023/07/25 10:15:56;;;;;;;4.23;1.83;;;;;;;;;;5072013;28;20256;-57
2023/07/25 10:18:24;;;;;;;2.90;1.60;;;;;;;;;;5071998;28;20213;-57
2023/07/25 10:20:51;;;;;;;2.30;1.67;;;;;;;;;;5072013;28;20195;-57
2023/07/25 10:23:17;;;;;;;2.90;1.70;;;;;;;;;;5070748;28;20199;-57
2023/07/25 10:25:44;;;;;;;4.07;1.67;;;;;;;;;;5071937;28;20199;-56
2023/07/25 10:28:11;;;;;;;2.80;1.60;;;;;;;;;;5071899;28;20204;-56
2023/07/25 10:30:41;;;;;;;1.70;1.27;;;;;;;;;;5072009;28;20228;-56
2023/07/25 10:33:08;;;;;;;4.80;1.57;;;;;;;;;;5071682;28;20200;-56
2023/07/25 10:35:41;;;;;;;2.27;1.40;;;;;;;;;;5071625;28;20249;-56
2023/07/25 10:38:08;;;;;;;3.13;1.40;;;;;;;;;;5071453;28;20222;-56
2023/07/25 10:40:50;;;;;;;4.13;1.60;;;;;;;;;;5071581;28;20203;-56
2023/07/25 10:43:16;;;;;;;1.80;1.50;;;;;;;;;;5071615;28;20251;-57
2023/07/25 10:45:49;;;;;;;4.13;1.30;;;;;;;;;;5071663;28;20740;-56
2023/07/25 10:48:28;;;;;;;3.10;1.57;;;;;;;;;;5071479;28;20191;-56
2023/07/25 10:50:54;;;;;;;3.17;1.30;;;;;;;;;;5071460;28;20662;-56
2023/07/25 10:53:22;;;;;;;4.07;1.30;;;;;;;;;;5071706;28;20219;-56
2023/07/25 10:56:03;;;;;;;1.97;1.10;;;;;;;;;;5071719;28;20211;-57
2023/07/25 10:58:29;;;;;;;3.07;1.27;;;;;;;;;;5071481;28;20227;-57
2023/07/25 11:00:55;;;;;;;3.50;1.40;;;;;;;;;;5071409;28;20245;-57
2023/07/25 11:03:32;;;;;;;2.57;1.47;;;;;;;;;;5071182;28;20192;-57
2023/07/25 11:06:17;;;;;;;2.43;1.30;;;;;;;;;;5071007;28;20269;-57
2023/07/25 11:08:43;;;;;;;3.40;1.30;;;;;;;;;;5071110;28;20214;-56
2023/07/25 11:11:10;;;;;;;2.57;1.50;;;;;;;;;;5071336;28;20196;-57
2023/07/25 11:13:37;;;;;;;3.23;1.30;;;;;;;;;;5071454;28;20210;-56
2023/07/25 11:16:03;;;;;;;3.07;1.27;;;;;;;;;;5071157;28;20184;-56
2023/07/25 11:18:29;;;;;;;2.93;1.17;;;;;;;;;;5071317;28;20200;-56
2023/07/25 11:20:59;;;;;;;5.27;1.37;;;;;;;;;;5070985;28;20664;-56
2023/07/25 11:23:25;;;;;;;1.50;1.13;;;;;;;;;;5071442;28;20288;-56
2023/07/25 11:25:53;;;;;;;4.47;1.30;;;;;;;;;;5071077;28;20200;-56
2023/07/25 11:28:20;;;;;;;4.20;1.27;;;;;;;;;;5071047;28;20264;-56
2023/07/25 11:30:47;;;;;;;2.23;1.00;;;;;;;;;;5071174;28;20222;-57
2023/07/25 11:33:13;;;;;;;1.90;1.17;;;;;;;;;;5070861;28;20206;-57
2023/07/25 11:35:39;;;;;;;6.90;1.60;;;;;;;;;;5071180;28;20225;-57
2023/07/25 11:38:06;;;;;;;3.17;1.40;;;;;;;;;;5070839;28;20676;-57
2023/07/25 11:40:32;;;;;;;2.37;1.60;;;;;;;;;;5070884;28;20656;-57
2023/07/25 11:42:58;;;;;;;3.10;1.53;;;;;;;;;;5070528;28;20321;-57
2023/07/25 11:45:24;;;;;;;4.30;1.40;;;;;;;;;;5071053;28;20288;-57
2023/07/25 11:47:51;;;;;;;1.90;1.23;;;;;;;;;;5070681;28;20246;-57
2023/07/25 11:50:21;;;;;;;2.07;1.37;;;;;;;;;;5070698;28;20229;-57
2023/07/25 11:52:47;;;;;;;2.60;1.40;;;;;;;;;;5070823;28;20221;-56
2023/07/25 11:55:15;;;;;;;3.50;1.50;;;;;;;;;;5070607;28;20204;-56
2023/07/25 11:57:41;;;;;;;2.37;1.20;;;;;;;;;;5070831;28;20602;-56
2023/07/25 12:00:07;;;;;;;1.90;1.10;;;;;;;;;;5070729;28;20193;-56
2023/07/25 12:02:36;;;;;;;2.37;1.30;;;;;;;;;;5070531;28;20736;-57
2023/07/25 12:05:03;;;;;;;2.57;1.30;;;;;;;;;;5070411;28;20691;-55
2023/07/25 12:07:47;;;;;;;4.27;1.57;;;;;;;;;;5070541;28;20271;-59
2023/07/25 12:10:24;;;;;;;2.47;1.37;;;;;;;;;;5070578;28;20241;-57
2023/07/25 12:12:50;;;;;;;4.90;1.50;;;;;;;;;;5070677;28;20200;-58
2023/07/25 12:15:17;;;;;;;2.67;1.30;;;;;;;;;;5073122;28;20235;-58
2023/07/25 12:17:43;;;;;;;3.07;1.47;;;;;;;;;;5074532;28;20200;-60
2023/07/25 12:20:13;;;;;;;4.23;1.40;;;;;;;;;;5074626;28;20611;-58
2023/07/25 12:22:39;;;;;;;3.17;1.50;;;;;;;;;;5074701;28;20197;-58
2023/07/25 12:25:05;;;;;;;4.53;1.63;;;;;;;;;;5072353;28;20681;-59
2023/07/25 12:27:34;;;;;;;3.87;1.50;;;;;;;;;;5073799;28;20753;-54
2023/07/25 12:30:00;;;;;;;3.67;1.40;;;;;;;;;;5074097;28;20228;-55
2023/07/25 12:32:26;;;;;;;6.27;1.70;;;;;;;;;;5074335;28;20198;-58
2023/07/25 12:34:59;;;;;;;2.33;1.27;;;;;;;;;;5074007;28;20299;-58
2023/07/25 12:37:25;;;;;;;2.27;1.23;;;;;;;;;;5074095;28;20737;-58
2023/07/25 12:39:51;;;;;;;3.10;1.40;;;;;;;;;;5073929;28;20199;-56
2023/07/25 12:42:17;;;;;;;5.57;1.40;;;;;;;;;;5074094;28;20251;-54
2023/07/25 12:44:44;;;;;;;3.43;1.67;;;;;;;;;;5073582;28;20594;-58
2023/07/25 12:47:10;;;;;;;1.97;1.37;;;;;;;;;;5073623;28;20554;-58
2023/07/25 12:49:37;;;;;;;3.70;1.20;;;;;;;;;;5073562;28;20269;-61
2023/07/25 12:52:03;;;;;;;3.30;1.50;;;;;;;;;;5073632;28;20205;-59
2023/07/25 12:54:29;;;;;;;4.43;1.30;;;;;;;;;;5073718;28;20730;-57
2023/07/25 12:56:55;;;;;;;2.93;1.40;;;;;;;;;;5073637;28;20290;-59
2023/07/25 12:59:21;;;;;;;1.97;1.17;;;;;;;;;;5073656;28;20739;-58
2023/07/25 13:01:48;;;;;;;3.90;1.33;;;;;;;;;;5073515;28;20199;-59
2023/07/25 13:04:14;;;;;;;3.60;1.33;;;;;;;;;;5073335;28;20207;-57
2023/07/25 13:06:40;;;;;;;2.43;1.30;;;;;;;;;;5073515;28;20220;-57
2023/07/25 13:09:06;;;;;;;3.40;1.23;;;;;;;;;;5073305;28;20277;-56
2023/07/25 13:11:32;;;;;;;1.90;1.20;;;;;;;;;;5073238;28;20249;-59
2023/07/25 13:13:58;;;;;;;8.53;2.23;;;;;;;;;;5073278;28;20218;-59
2023/07/25 13:16:25;;;;;;;4.90;1.57;;;;;;;;;;5073268;28;20216;-60
2023/07/25 13:18:52;;;;;;;5.57;1.50;;;;;;;;;;5073090;28;20188;-57
2023/07/25 13:21:18;;;;;;;4.07;1.23;;;;;;;;;;5073054;28;20575;-57
2023/07/25 13:23:44;;;;;;;2.53;1.43;;;;;;;;;;5073007;28;20202;-56
2023/07/25 13:26:10;;;;;;;3.77;1.40;;;;;;;;;;5072743;28;20201;-55
2023/07/25 13:28:36;;;;;;;2.90;1.30;;;;;;;;;;5072993;28;20206;-56
2023/07/25 13:31:02;;;;;;;2.43;1.40;;;;;;;;;;5072793;28;20652;-60
2023/07/25 13:33:28;;;;;;;1.70;1.20;;;;;;;;;;5071607;28;20210;-59
2023/07/25 13:35:55;;;;;;;3.27;1.40;;;;;;;;;;5073699;28;20198;-60
2023/07/25 13:38:21;;;;;;;4.87;1.47;;;;;;;;;;5073728;28;20688;-59
2023/07/25 13:40:48;;;;;;;3.47;1.60;;;;;;;;;;5073503;28;20203;-58
2023/07/25 13:43:14;;;;;;;4.43;1.80;;;;;;;;;;5073357;28;20293;-57
2023/07/25 13:45:40;;;;;;;4.53;1.50;;;;;;;;;;5073647;28;20191;-55
2023/07/25 13:48:06;;;;;;;2.50;1.30;;;;;;;;;;5073366;28;20201;-58
2023/07/25 13:50:32;;;;;;;2.30;1.50;;;;;;;;;;5073227;28;20701;-58
2023/07/25 13:53:00;;;;;;;3.80;1.40;;;;;;;;;;5073222;28;20214;-57
2023/07/25 13:55:26;;;;;;;3.87;1.40;;;;;;;;;;5073133;28;20210;-57
2023/07/25 13:57:52;;;;;;;2.43;1.10;;;;;;;;;;5073265;28;20191;-58
2023/07/25 14:00:18;;;;;;;5.13;1.73;;;;;;;;;;5073063;28;20509;-56
2023/07/25 14:02:44;;;;;;;1.83;1.17;;;;;;;;;;5073114;28;20202;-57
2023/07/25 14:05:10;;;;;;;2.93;1.17;;;;;;;;;;5072797;28;20304;-58
2023/07/25 14:07:37;;;;;;;5.67;1.40;;;;;;;;;;5073104;28;20192;-57
2023/07/25 14:10:05;;;;;;;4.77;1.67;;;;;;;;;;5072806;28;20526;-59
2023/07/25 14:12:31;;;;;;;2.93;1.20;;;;;;;;;;5073118;28;20286;-59
2023/07/25 14:14:57;;;;;;;3.63;1.33;;;;;;;;;;5073176;28;20322;-59
2023/07/25 14:17:23;;;;;;;2.03;1.30;;;;;;;;;;5073171;28;20296;-56
2023/07/25 14:19:49;;;;;;;3.03;1.30;;;;;;;;;;5073077;28;20214;-57
2023/07/25 14:22:15;;;;;;;4.40;1.67;;;;;;;;;;5072806;28;20196;-57
2023/07/25 14:24:41;;;;;;;4.33;1.33;;;;;;;;;;5070950;28;20580;-57
2023/07/25 14:27:08;;;;;;;2.40;1.20;;;;;;;;;;5072399;28;20215;-57
2023/07/25 14:29:34;;;;;;;1.83;1.30;;;;;;;;;;5072397;28;20238;-56
2023/07/25 14:32:00;;;;;;;4.63;1.20;;;;;;;;;;5072185;28;20240;-57
2023/07/25 14:34:26;;;;;;;3.13;1.27;;;;;;;;;;5072306;28;20618;-57
2023/07/25 14:36:52;;;;;;;3.03;1.20;;;;;;;;;;5071579;28;20212;-57
2023/07/25 14:39:18;;;;;;;3.17;1.33;;;;;;;;;;5072115;28;20637;-57